createdAt,value
2018-08-23T00:03:47.539Z,25.22
2018-08-23T00:08:51.828Z,25.24
2018-08-23T00:13:55.798Z,25.22
2018-08-23T00:18:59.565Z,25.21
2018-08-23T00:24:12.877Z,25.17
2018-08-23T00:29:21.825Z,25.15
2018-08-23T00:34:30.046Z,25.11
2018-08-23T00:39:33.990Z,25.04
2018-08-23T00:44:56.363Z,25.00
2018-08-23T00:50:00.719Z,24.95
2018-08-23T00:55:12.669Z,24.84
2018-08-23T01:00:18.901Z,24.82
2018-08-23T01:05:27.889Z,24.81
2018-08-23T01:10:31.629Z,24.82
2018-08-23T01:15:35.420Z,24.79
2018-08-23T01:20:39.950Z,24.75
2018-08-23T01:25:44.817Z,24.50
2018-08-23T01:30:49.136Z,24.36
2018-08-23T01:35:53.102Z,24.18
2018-08-23T01:41:01.940Z,24.46
2018-08-23T01:46:05.709Z,24.43
2018-08-23T01:51:09.772Z,24.35
2018-08-23T01:56:13.516Z,24.22
2018-08-23T02:01:18.549Z,24.26
2018-08-23T02:06:23.352Z,24.15
2018-08-23T02:11:27.145Z,24.24
2018-08-23T02:16:42.160Z,24.30
2018-08-23T02:21:45.884Z,24.33
2018-08-23T02:26:49.619Z,24.29
2018-08-23T02:31:53.331Z,24.33
2018-08-23T02:36:57.141Z,24.24
2018-08-23T02:42:01.006Z,24.17
2018-08-23T02:47:04.814Z,24.10
2018-08-23T02:52:08.692Z,24.04
2018-08-23T02:57:12.668Z,23.99
2018-08-23T03:02:16.389Z,23.95
2018-08-23T03:07:23.472Z,24.01
2018-08-23T03:12:27.236Z,23.96
2018-08-23T03:17:34.346Z,24.03
2018-08-23T03:22:38.461Z,24.02
2018-08-23T03:27:42.228Z,23.94
2018-08-23T03:32:46.192Z,24.02
2018-08-23T03:37:49.951Z,24.29
2018-08-23T03:42:53.723Z,24.26
2018-08-23T03:47:57.519Z,24.08
2018-08-23T03:53:01.349Z,23.95
2018-08-23T03:58:05.133Z,24.07
2018-08-23T04:03:19.340Z,23.89
2018-08-23T04:08:23.163Z,24.06
2018-08-23T04:13:27.024Z,24.05
2018-08-23T04:18:30.818Z,24.05
2018-08-23T04:23:35.448Z,23.91
2018-08-23T04:28:39.252Z,23.84
2018-08-23T04:33:43.160Z,24.05
2018-08-23T04:38:51.019Z,23.72
2018-08-23T04:44:02.053Z,23.56
2018-08-23T04:49:07.437Z,23.66
2018-08-23T04:54:11.157Z,23.79
2018-08-23T04:59:14.912Z,23.97
2018-08-23T05:04:18.695Z,23.78
2018-08-23T05:09:22.477Z,23.91
2018-08-23T05:14:26.222Z,24.10
2018-08-23T05:19:30.023Z,24.06
2018-08-23T05:24:33.774Z,23.97
2018-08-23T05:29:37.533Z,24.07
2018-08-23T05:34:41.313Z,24.11
2018-08-23T05:39:51.116Z,24.01
2018-08-23T05:44:54.930Z,24.04
2018-08-23T05:49:58.744Z,23.95
2018-08-23T05:55:02.844Z,24.10
2018-08-23T06:00:06.637Z,24.08
2018-08-23T06:05:10.393Z,23.97
2018-08-23T06:10:15.006Z,24.15
2018-08-23T06:15:18.759Z,24.16
2018-08-23T06:20:22.581Z,24.23
2018-08-23T06:25:26.324Z,24.08
2018-08-23T06:30:30.155Z,24.18
2018-08-23T06:35:35.216Z,24.15
2018-08-23T06:40:38.993Z,24.34
2018-08-23T06:45:42.791Z,24.38
2018-08-23T06:50:51.693Z,24.29
2018-08-23T06:55:55.586Z,24.36
2018-08-23T07:00:59.429Z,24.38
2018-08-23T07:06:03.215Z,24.42
2018-08-23T07:11:13.515Z,24.44
2018-08-23T07:16:18.077Z,24.57
2018-08-23T07:21:22.043Z,24.65
2018-08-23T07:26:25.945Z,24.69
2018-08-23T07:31:29.747Z,24.75
2018-08-23T07:36:33.439Z,24.86
2018-08-23T07:41:37.135Z,24.87
2018-08-23T07:46:40.846Z,24.91
2018-08-23T07:51:44.593Z,24.93
2018-08-23T07:56:48.383Z,24.93
2018-08-23T08:01:52.163Z,24.95
2018-08-23T08:06:55.940Z,24.97
2018-08-23T08:12:00.616Z,25.01
2018-08-23T08:17:09.163Z,25.10
2018-08-23T08:22:12.955Z,25.10
2018-08-23T08:27:16.681Z,25.08
2018-08-23T08:32:20.383Z,25.12
2018-08-23T08:37:24.156Z,25.12
2018-08-23T08:42:33.076Z,25.15
2018-08-23T08:47:36.748Z,25.15
2018-08-23T08:52:40.475Z,25.15
2018-08-23T08:57:45.837Z,25.16
2018-08-23T09:02:49.569Z,25.18
2018-08-23T09:07:53.387Z,25.21
2018-08-23T09:12:57.189Z,25.23
2018-08-23T09:18:00.903Z,25.26
2018-08-23T09:23:04.635Z,25.26
2018-08-23T09:28:08.400Z,25.29
2018-08-23T09:33:16.218Z,25.29
2018-08-23T09:38:19.959Z,25.30
2018-08-23T09:43:23.738Z,25.28
2018-08-23T09:48:27.564Z,25.28
2018-08-23T09:53:31.904Z,25.29
2018-08-23T09:58:40.662Z,25.30
2018-08-23T10:03:49.532Z,25.29
2018-08-23T10:09:17.879Z,25.31
2018-08-23T10:14:27.488Z,25.32
2018-08-23T10:19:36.420Z,25.35
2018-08-23T10:24:40.183Z,25.34
2018-08-23T10:29:43.951Z,25.35
2018-08-23T10:34:47.604Z,25.36
2018-08-23T10:39:51.336Z,25.36
2018-08-23T10:44:55.007Z,25.30
2018-08-23T10:49:58.779Z,25.40
2018-08-23T10:55:02.608Z,25.41
2018-08-23T11:00:06.775Z,25.42
2018-08-23T11:05:10.558Z,25.43
2018-08-23T11:10:19.452Z,25.44
2018-08-23T11:15:23.904Z,25.45
2018-08-23T11:20:34.759Z,25.47
2018-08-23T11:25:38.500Z,25.49
2018-08-23T11:30:42.292Z,25.49
2018-08-23T11:35:46.166Z,25.50
2018-08-23T11:40:50.021Z,25.52
2018-08-23T11:46:01.942Z,25.53
2018-08-23T11:51:05.748Z,25.54
2018-08-23T11:56:10.024Z,25.54
2018-08-23T12:01:16.140Z,25.55
2018-08-23T12:06:19.868Z,25.56
2018-08-23T12:11:23.703Z,25.55
2018-08-23T12:16:27.512Z,25.56
2018-08-23T12:21:31.518Z,25.57
2018-08-23T12:26:35.283Z,25.59
2018-08-23T12:31:39.402Z,25.66
2018-08-23T12:37:50.863Z,25.65
2018-08-23T12:42:54.639Z,25.67
2018-08-23T12:47:58.482Z,25.69
2018-08-23T12:53:02.275Z,25.68
2018-08-23T12:58:09.800Z,25.70
2018-08-23T13:03:13.671Z,25.74
2018-08-23T13:08:17.414Z,25.71
2018-08-23T13:13:21.158Z,25.69
2018-08-23T13:18:24.882Z,25.74
2018-08-23T13:23:28.667Z,25.82
2018-08-23T13:28:32.483Z,25.84
2018-08-23T13:33:36.272Z,26.05
2018-08-23T13:38:40.135Z,25.97
2018-08-23T13:43:44.369Z,25.90
2018-08-23T13:48:48.053Z,25.84
2018-08-23T13:53:51.856Z,25.96
2018-08-23T13:58:56.844Z,26.38
2018-08-23T14:04:00.600Z,26.41
2018-08-23T14:09:05.404Z,26.21
2018-08-23T14:14:09.546Z,26.29
2018-08-23T14:19:13.482Z,26.24
2018-08-23T14:24:17.947Z,26.10
2018-08-23T14:29:22.003Z,26.06
2018-08-23T14:34:26.101Z,26.03
2018-08-23T14:39:30.154Z,25.98
2018-08-23T14:44:35.037Z,26.00
2018-08-23T14:49:38.878Z,26.14
2018-08-23T14:54:43.530Z,26.11
2018-08-23T14:59:47.785Z,26.17
2018-08-23T15:04:51.688Z,26.16
2018-08-23T15:09:55.477Z,26.18
2018-08-23T15:14:59.528Z,26.22
2018-08-23T15:20:03.928Z,26.24
2018-08-23T15:25:08.371Z,26.28
2018-08-23T15:30:12.187Z,26.30
2018-08-23T15:35:17.448Z,26.30
2018-08-23T15:40:21.280Z,26.34
2018-08-23T15:45:25.253Z,26.02
2018-08-23T15:50:29.917Z,26.10
2018-08-23T15:55:34.854Z,26.23
2018-08-23T16:00:38.427Z,26.22
2018-08-23T16:05:42.680Z,26.31
2018-08-23T16:10:46.561Z,26.49
2018-08-23T16:15:54.670Z,26.31
2018-08-23T16:21:03.104Z,26.43
2018-08-23T16:26:07.065Z,26.25
2018-08-23T16:31:10.906Z,26.37
2018-08-23T16:36:15.016Z,26.38
2018-08-23T16:41:18.835Z,26.46
2018-08-23T16:46:22.868Z,26.28
2018-08-23T16:51:26.604Z,26.18
2018-08-23T16:56:30.375Z,26.16
2018-08-23T17:01:34.382Z,26.17
2018-08-23T17:06:38.159Z,26.16
2018-08-23T17:11:42.039Z,26.14
2018-08-23T17:16:51.184Z,26.09
2018-08-23T17:21:54.922Z,25.84
2018-08-23T17:26:58.901Z,25.91
2018-08-23T17:32:02.830Z,25.97
2018-08-23T17:37:06.747Z,25.91
2018-08-23T17:42:10.591Z,26.08
2018-08-23T17:47:14.445Z,26.07
2018-08-23T17:52:18.247Z,26.07
2018-08-23T17:57:21.929Z,26.19
2018-08-23T18:02:25.752Z,26.10
2018-08-23T18:07:29.666Z,26.09
2018-08-23T18:12:34.068Z,26.04
2018-08-23T18:17:39.375Z,26.09
2018-08-23T18:22:43.346Z,26.13
2018-08-23T18:27:47.213Z,26.18
2018-08-23T18:32:51.232Z,26.21
2018-08-23T18:37:55.071Z,26.28
2018-08-23T18:42:59.040Z,26.28
2018-08-23T18:48:03.091Z,26.24
2018-08-23T18:53:07.023Z,26.21
2018-08-23T18:58:11.471Z,26.18
2018-08-23T19:03:15.374Z,26.30
2018-08-23T19:08:19.347Z,26.25
2018-08-23T19:13:23.143Z,26.24
2018-08-23T19:18:27.086Z,26.18
2018-08-23T19:23:31.026Z,26.24
2018-08-23T19:28:35.160Z,26.15
2018-08-23T19:33:39.033Z,26.22
2018-08-23T19:38:42.826Z,26.16
2018-08-23T19:43:47.011Z,26.22
2018-08-23T19:48:55.032Z,26.26
2018-08-23T19:53:58.891Z,26.25
2018-08-23T19:59:02.708Z,26.15
2018-08-23T20:04:06.684Z,26.13
2018-08-23T20:09:10.958Z,26.19
2018-08-23T20:14:15.031Z,26.26
2018-08-23T20:19:18.909Z,26.23
2018-08-23T20:24:22.732Z,26.16
2018-08-23T20:29:26.741Z,26.19
2018-08-23T20:34:30.980Z,26.19
2018-08-23T20:39:34.987Z,26.24
2018-08-23T20:44:39.018Z,26.27
2018-08-23T20:49:42.919Z,26.27
2018-08-23T20:54:47.120Z,26.26
2018-08-23T20:59:51.183Z,26.27
2018-08-23T21:04:55.150Z,26.24
2018-08-23T21:09:59.201Z,26.26
2018-08-23T21:15:03.190Z,26.20
2018-08-23T21:20:07.409Z,26.11
2018-08-23T21:25:11.245Z,26.27
2018-08-23T21:30:15.115Z,26.28
2018-08-23T21:35:18.899Z,26.27
2018-08-23T21:40:22.805Z,26.23
2018-08-23T21:45:26.627Z,26.19
2018-08-23T21:50:30.485Z,26.14
2018-08-23T21:55:38.540Z,26.13
2018-08-23T22:00:47.366Z,26.15
2018-08-23T22:05:51.369Z,26.14
2018-08-23T22:10:55.315Z,26.11
2018-08-23T22:15:59.214Z,26.08
2018-08-23T22:21:03.124Z,26.05
2018-08-23T22:26:07.123Z,26.07
2018-08-23T22:31:11.187Z,26.03
2018-08-23T22:36:15.095Z,26.02
2018-08-23T22:41:19.086Z,26.03
2018-08-23T22:46:23.087Z,26.02
2018-08-23T22:51:26.920Z,25.99
2018-08-23T22:56:30.736Z,25.99
2018-08-23T23:01:34.546Z,25.98
2018-08-23T23:06:38.388Z,25.97
2018-08-23T23:11:42.643Z,25.97
2018-08-23T23:16:46.486Z,25.95
2018-08-23T23:21:50.297Z,25.95
2018-08-23T23:26:54.833Z,25.97
2018-08-23T23:31:58.616Z,25.90
2018-08-23T23:37:02.356Z,25.85
2018-08-23T23:42:06.240Z,25.82
2018-08-23T23:47:10.006Z,25.79
2018-08-23T23:52:13.757Z,25.78
2018-08-23T23:57:17.526Z,25.78
